sensor_id;sensor_type;location;lat;lon;timestamp;P1;durP1;ratioP1;P2;durP2;ratioP2
20468;SDS011;10393;52.460;13.322;2023-05-01T00:00:38;5.00;;;3.60;;
20468;SDS011;10393;52.460;13.322;2023-05-01T00:02:19;5.37;;;3.40;;
20468;SDS011;10393;52.460;13.322;2023-05-01T00:04:01;6.87;;;3.73;;
20468;SDS011;10393;52.460;13.322;2023-05-01T00:05:45;15.57;;;4.10;;
20468;SDS011;10393;52.460;13.322;2023-05-01T00:07:26;5.03;;;3.63;;
20468;SDS011;10393;52.460;13.322;2023-05-01T00:09:11;9.00;;;3.20;;
20468;SDS011;10393;52.460;13.322;2023-05-01T00:10:52;6.03;;;3.13;;
20468;SDS011;10393;52.460;13.322;2023-05-01T00:12:33;4.93;;;3.33;;
20468;SDS011;10393;52.460;13.322;2023-05-01T00:14:15;6.70;;;3.23;;
20468;SDS011;10393;52.460;13.322;2023-05-01T00:15:56;6.10;;;3.00;;
20468;SDS011;10393;52.460;13.322;2023-05-01T00:17:37;10.53;;;3.23;;
20468;SDS011;10393;52.460;13.322;2023-05-01T00:19:19;9.97;;;3.37;;
20468;SDS011;10393;52.460;13.322;2023-05-01T00:21:00;7.67;;;3.20;;
20468;SDS011;10393;52.460;13.322;2023-05-01T00:22:42;8.87;;;3.50;;
20468;SDS011;10393;52.460;13.322;2023-05-01T00:24:23;10.33;;;3.80;;
20468;SDS011;10393;52.460;13.322;2023-05-01T00:26:04;9.50;;;3.10;;
20468;SDS011;10393;52.460;13.322;2023-05-01T00:27:46;5.70;;;3.33;;
20468;SDS011;10393;52.460;13.322;2023-05-01T00:29:27;6.17;;;2.57;;
20468;SDS011;10393;52.460;13.322;2023-05-01T00:31:09;8.30;;;1.73;;
20468;SDS011;10393;52.460;13.322;2023-05-01T00:32:50;5.63;;;2.60;;
20468;SDS011;10393;52.460;13.322;2023-05-01T00:34:32;4.27;;;2.33;;
20468;SDS011;10393;52.460;13.322;2023-05-01T00:36:13;5.77;;;2.13;;
20468;SDS011;10393;52.460;13.322;2023-05-01T00:37:55;5.77;;;2.73;;
20468;SDS011;10393;52.460;13.322;2023-05-01T00:39:36;4.50;;;2.20;;
20468;SDS011;10393;52.460;13.322;2023-05-01T00:41:18;3.63;;;2.13;;
20468;SDS011;10393;52.460;13.322;2023-05-01T00:43:00;3.07;;;1.60;;
20468;SDS011;10393;52.460;13.322;2023-05-01T00:44:41;6.07;;;2.97;;
20468;SDS011;10393;52.460;13.322;2023-05-01T00:46:23;3.17;;;1.70;;
20468;SDS011;10393;52.460;13.322;2023-05-01T00:48:04;3.90;;;1.23;;
20468;SDS011;10393;52.460;13.322;2023-05-01T00:49:46;5.13;;;1.97;;
20468;SDS011;10393;52.460;13.322;2023-05-01T00:51:28;5.00;;;3.20;;
20468;SDS011;10393;52.460;13.322;2023-05-01T00:53:09;6.27;;;3.80;;
20468;SDS011;10393;52.460;13.322;2023-05-01T00:54:51;5.43;;;2.03;;
20468;SDS011;10393;52.460;13.322;2023-05-01T00:56:32;9.37;;;3.37;;
20468;SDS011;10393;52.460;13.322;2023-05-01T00:58:14;6.33;;;2.63;;
20468;SDS011;10393;52.460;13.322;2023-05-01T00:59:56;4.33;;;2.33;;
20468;SDS011;10393;52.460;13.322;2023-05-01T01:01:38;7.87;;;2.40;;
20468;SDS011;10393;52.460;13.322;2023-05-01T01:03:21;5.57;;;2.10;;
20468;SDS011;10393;52.460;13.322;2023-05-01T01:05:02;6.77;;;1.83;;
20468;SDS011;10393;52.460;13.322;2023-05-01T01:06:48;6.93;;;2.67;;
20468;SDS011;10393;52.460;13.322;2023-05-01T01:08:45;3.63;;;2.13;;
20468;SDS011;10393;52.460;13.322;2023-05-01T01:10:34;9.03;;;2.90;;
20468;SDS011;10393;52.460;13.322;2023-05-01T01:14:23;1.70;;;0.93;;
20468;SDS011;10393;52.460;13.322;2023-05-01T01:22:05;5.97;;;3.43;;
20468;SDS011;10393;52.460;13.322;2023-05-01T01:35:29;3.97;;;1.30;;
20468;SDS011;10393;52.460;13.322;2023-05-01T01:37:19;2.83;;;2.07;;
20468;SDS011;10393;52.460;13.322;2023-05-01T01:40:57;8.63;;;3.53;;
20468;SDS011;10393;52.460;13.322;2023-05-01T01:42:54;8.53;;;2.83;;
20468;SDS011;10393;52.460;13.322;2023-05-01T01:44:40;9.53;;;3.47;;
20468;SDS011;10393;52.460;13.322;2023-05-01T01:46:22;6.37;;;2.53;;
20468;SDS011;10393;52.460;13.322;2023-05-01T01:48:04;7.63;;;2.53;;
20468;SDS011;10393;52.460;13.322;2023-05-01T01:49:50;4.93;;;2.97;;
20468;SDS011;10393;52.460;13.322;2023-05-01T01:51:32;8.90;;;3.60;;
20468;SDS011;10393;52.460;13.322;2023-05-01T01:53:16;5.27;;;3.03;;
20468;SDS011;10393;52.460;13.322;2023-05-01T01:54:59;6.47;;;2.90;;
20468;SDS011;10393;52.460;13.322;2023-05-01T01:56:45;5.83;;;3.10;;
20468;SDS011;10393;52.460;13.322;2023-05-01T01:58:27;4.40;;;2.57;;
20468;SDS011;10393;52.460;13.322;2023-05-01T02:00:10;10.30;;;2.63;;
20468;SDS011;10393;52.460;13.322;2023-05-01T02:01:58;6.63;;;2.83;;
20468;SDS011;10393;52.460;13.322;2023-05-01T02:03:40;7.90;;;3.83;;
20468;SDS011;10393;52.460;13.322;2023-05-01T02:05:23;6.03;;;3.37;;
20468;SDS011;10393;52.460;13.322;2023-05-01T02:07:05;7.50;;;3.20;;
20468;SDS011;10393;52.460;13.322;2023-05-01T02:08:47;5.90;;;3.17;;
20468;SDS011;10393;52.460;13.322;2023-05-01T02:10:29;8.13;;;3.27;;
20468;SDS011;10393;52.460;13.322;2023-05-01T02:12:10;9.00;;;2.33;;
20468;SDS011;10393;52.460;13.322;2023-05-01T02:13:52;6.53;;;3.67;;
20468;SDS011;10393;52.460;13.322;2023-05-01T02:15:34;5.27;;;2.63;;
20468;SDS011;10393;52.460;13.322;2023-05-01T02:17:17;5.00;;;3.10;;
20468;SDS011;10393;52.460;13.322;2023-05-01T02:19:00;3.53;;;2.30;;
20468;SDS011;10393;52.460;13.322;2023-05-01T02:20:43;4.97;;;2.30;;
20468;SDS011;10393;52.460;13.322;2023-05-01T02:22:24;4.93;;;2.93;;
20468;SDS011;10393;52.460;13.322;2023-05-01T02:24:06;7.10;;;2.63;;
20468;SDS011;10393;52.460;13.322;2023-05-01T02:25:49;5.90;;;3.27;;
20468;SDS011;10393;52.460;13.322;2023-05-01T02:27:39;3.23;;;2.20;;
20468;SDS011;10393;52.460;13.322;2023-05-01T02:29:22;4.30;;;2.47;;
20468;SDS011;10393;52.460;13.322;2023-05-01T02:31:04;6.57;;;2.30;;
20468;SDS011;10393;52.460;13.322;2023-05-01T02:32:45;4.50;;;2.93;;
20468;SDS011;10393;52.460;13.322;2023-05-01T02:34:27;6.03;;;3.30;;
20468;SDS011;10393;52.460;13.322;2023-05-01T02:36:08;5.30;;;2.20;;
20468;SDS011;10393;52.460;13.322;2023-05-01T02:37:49;10.53;;;3.00;;
20468;SDS011;10393;52.460;13.322;2023-05-01T02:39:32;4.40;;;2.17;;
20468;SDS011;10393;52.460;13.322;2023-05-01T02:41:13;8.50;;;2.63;;
20468;SDS011;10393;52.460;13.322;2023-05-01T02:42:55;3.73;;;2.50;;
20468;SDS011;10393;52.460;13.322;2023-05-01T02:44:38;7.70;;;2.80;;
20468;SDS011;10393;52.460;13.322;2023-05-01T02:46:20;9.67;;;2.43;;
20468;SDS011;10393;52.460;13.322;2023-05-01T02:48:04;3.07;;;1.83;;
20468;SDS011;10393;52.460;13.322;2023-05-01T02:49:46;4.93;;;3.10;;
20468;SDS011;10393;52.460;13.322;2023-05-01T02:51:29;2.87;;;2.17;;
20468;SDS011;10393;52.460;13.322;2023-05-01T02:53:14;8.63;;;1.77;;
20468;SDS011;10393;52.460;13.322;2023-05-01T02:55:01;5.67;;;2.30;;
20468;SDS011;10393;52.460;13.322;2023-05-01T02:56:43;3.50;;;1.63;;
20468;SDS011;10393;52.460;13.322;2023-05-01T02:58:24;7.73;;;3.30;;
20468;SDS011;10393;52.460;13.322;2023-05-01T03:00:06;5.23;;;2.10;;
20468;SDS011;10393;52.460;13.322;2023-05-01T03:01:53;4.23;;;1.77;;
20468;SDS011;10393;52.460;13.322;2023-05-01T03:03:35;5.50;;;3.07;;
20468;SDS011;10393;52.460;13.322;2023-05-01T03:05:16;6.47;;;2.93;;
20468;SDS011;10393;52.460;13.322;2023-05-01T03:06:59;7.90;;;2.63;;
20468;SDS011;10393;52.460;13.322;2023-05-01T03:08:40;7.03;;;2.93;;
20468;SDS011;10393;52.460;13.322;2023-05-01T03:10:22;7.40;;;2.63;;
20468;SDS011;10393;52.460;13.322;2023-05-01T03:12:03;3.80;;;2.80;;
20468;SDS011;10393;52.460;13.322;2023-05-01T03:13:45;11.53;;;2.90;;
20468;SDS011;10393;52.460;13.322;2023-05-01T03:15:26;6.03;;;2.50;;
20468;SDS011;10393;52.460;13.322;2023-05-01T03:17:08;6.53;;;2.87;;
20468;SDS011;10393;52.460;13.322;2023-05-01T03:18:50;9.43;;;2.57;;
20468;SDS011;10393;52.460;13.322;2023-05-01T03:20:31;9.47;;;2.87;;
20468;SDS011;10393;52.460;13.322;2023-05-01T03:22:13;5.13;;;2.43;;
20468;SDS011;10393;52.460;13.322;2023-05-01T03:23:54;6.83;;;2.43;;
20468;SDS011;10393;52.460;13.322;2023-05-01T03:25:35;5.70;;;2.10;;
20468;SDS011;10393;52.460;13.322;2023-05-01T03:27:17;6.97;;;1.97;;
20468;SDS011;10393;52.460;13.322;2023-05-01T03:28:58;5.80;;;2.63;;
20468;SDS011;10393;52.460;13.322;2023-05-01T03:30:40;4.63;;;2.37;;
20468;SDS011;10393;52.460;13.322;2023-05-01T03:32:21;6.70;;;2.20;;
20468;SDS011;10393;52.460;13.322;2023-05-01T03:34:03;5.93;;;1.90;;
20468;SDS011;10393;52.460;13.322;2023-05-01T03:35:45;9.10;;;2.30;;
20468;SDS011;10393;52.460;13.322;2023-05-01T03:37:27;5.33;;;2.53;;
20468;SDS011;10393;52.460;13.322;2023-05-01T03:39:08;4.33;;;1.77;;
20468;SDS011;10393;52.460;13.322;2023-05-01T03:41:08;5.13;;;2.10;;
20468;SDS011;10393;52.460;13.322;2023-05-01T03:43:04;4.30;;;1.93;;
20468;SDS011;10393;52.460;13.322;2023-05-01T03:44:46;7.90;;;2.70;;
20468;SDS011;10393;52.460;13.322;2023-05-01T03:46:29;4.27;;;2.37;;
20468;SDS011;10393;52.460;13.322;2023-05-01T03:48:11;1.87;;;1.40;;
20468;SDS011;10393;52.460;13.322;2023-05-01T03:49:54;6.50;;;1.60;;
20468;SDS011;10393;52.460;13.322;2023-05-01T03:51:36;8.70;;;2.40;;
20468;SDS011;10393;52.460;13.322;2023-05-01T03:53:17;6.87;;;2.00;;
20468;SDS011;10393;52.460;13.322;2023-05-01T03:54:58;4.73;;;1.67;;
20468;SDS011;10393;52.460;13.322;2023-05-01T03:56:49;7.73;;;1.87;;
20468;SDS011;10393;52.460;13.322;2023-05-01T03:58:32;4.53;;;1.87;;
20468;SDS011;10393;52.460;13.322;2023-05-01T04:00:13;2.03;;;1.50;;
20468;SDS011;10393;52.460;13.322;2023-05-01T04:01:59;2.43;;;0.90;;
20468;SDS011;10393;52.460;13.322;2023-05-01T04:03:43;3.87;;;2.17;;
20468;SDS011;10393;52.460;13.322;2023-05-01T04:05:25;3.10;;;1.97;;
20468;SDS011;10393;52.460;13.322;2023-05-01T04:07:12;7.00;;;1.90;;
20468;SDS011;10393;52.460;13.322;2023-05-01T04:08:54;7.87;;;2.47;;
20468;SDS011;10393;52.460;13.322;2023-05-01T04:10:35;4.73;;;2.23;;
20468;SDS011;10393;52.460;13.322;2023-05-01T04:12:18;7.63;;;1.97;;
20468;SDS011;10393;52.460;13.322;2023-05-01T04:13:59;8.80;;;1.77;;
20468;SDS011;10393;52.460;13.322;2023-05-01T04:15:43;2.57;;;1.53;;
20468;SDS011;10393;52.460;13.322;2023-05-01T04:17:28;2.60;;;1.50;;
20468;SDS011;10393;52.460;13.322;2023-05-01T04:19:09;2.63;;;1.73;;
20468;SDS011;10393;52.460;13.322;2023-05-01T04:20:55;5.47;;;2.23;;
20468;SDS011;10393;52.460;13.322;2023-05-01T04:22:36;3.87;;;2.43;;
20468;SDS011;10393;52.460;13.322;2023-05-01T04:24:17;11.57;;;1.93;;
20468;SDS011;10393;52.460;13.322;2023-05-01T04:25:58;3.23;;;1.23;;
20468;SDS011;10393;52.460;13.322;2023-05-01T04:27:40;9.57;;;1.67;;
20468;SDS011;10393;52.460;13.322;2023-05-01T04:29:21;4.07;;;2.27;;
20468;SDS011;10393;52.460;13.322;2023-05-01T04:31:03;7.63;;;1.97;;
20468;SDS011;10393;52.460;13.322;2023-05-01T04:32:44;1.63;;;1.33;;
20468;SDS011;10393;52.460;13.322;2023-05-01T04:34:26;3.80;;;1.43;;
20468;SDS011;10393;52.460;13.322;2023-05-01T04:36:08;2.40;;;0.93;;
20468;SDS011;10393;52.460;13.322;2023-05-01T04:37:50;0.83;;;0.50;;
20468;SDS011;10393;52.460;13.322;2023-05-01T04:39:31;2.70;;;0.93;;
20468;SDS011;10393;52.460;13.322;2023-05-01T04:41:12;9.53;;;1.90;;
20468;SDS011;10393;52.460;13.322;2023-05-01T04:42:54;7.33;;;1.60;;
20468;SDS011;10393;52.460;13.322;2023-05-01T04:44:35;1.50;;;1.40;;
20468;SDS011;10393;52.460;13.322;2023-05-01T04:46:17;5.63;;;1.50;;
20468;SDS011;10393;52.460;13.322;2023-05-01T04:47:58;1.90;;;1.60;;
20468;SDS011;10393;52.460;13.322;2023-05-01T04:49:39;2.57;;;0.73;;
20468;SDS011;10393;52.460;13.322;2023-05-01T04:51:21;3.73;;;1.70;;
20468;SDS011;10393;52.460;13.322;2023-05-01T04:53:03;5.27;;;2.00;;
20468;SDS011;10393;52.460;13.322;2023-05-01T04:54:47;7.07;;;1.67;;
20468;SDS011;10393;52.460;13.322;2023-05-01T04:56:29;10.23;;;2.10;;
20468;SDS011;10393;52.460;13.322;2023-05-01T04:58:13;7.23;;;2.10;;
20468;SDS011;10393;52.460;13.322;2023-05-01T04:59:57;1.57;;;1.03;;
20468;SDS011;10393;52.460;13.322;2023-05-01T05:01:39;2.03;;;1.30;;
20468;SDS011;10393;52.460;13.322;2023-05-01T05:03:20;2.37;;;1.17;;
20468;SDS011;10393;52.460;13.322;2023-05-01T05:05:01;0.70;;;0.70;;
20468;SDS011;10393;52.460;13.322;2023-05-01T05:06:42;2.20;;;1.07;;
20468;SDS011;10393;52.460;13.322;2023-05-01T05:08:29;1.80;;;1.03;;
20468;SDS011;10393;52.460;13.322;2023-05-01T05:10:21;4.20;;;2.03;;
20468;SDS011;10393;52.460;13.322;2023-05-01T05:12:14;3.37;;;1.97;;
20468;SDS011;10393;52.460;13.322;2023-05-01T05:13:55;2.50;;;1.43;;
20468;SDS011;10393;52.460;13.322;2023-05-01T05:15:36;5.33;;;0.80;;
20468;SDS011;10393;52.460;13.322;2023-05-01T05:17:20;5.70;;;1.17;;
20468;SDS011;10393;52.460;13.322;2023-05-01T05:19:01;2.80;;;1.60;;
20468;SDS011;10393;52.460;13.322;2023-05-01T05:20:46;3.77;;;1.50;;
20468;SDS011;10393;52.460;13.322;2023-05-01T05:22:27;1.48;;;1.38;;
20468;SDS011;10393;52.460;13.322;2023-05-01T05:24:28;4.80;;;1.13;;
20468;SDS011;10393;52.460;13.322;2023-05-01T05:26:09;7.43;;;1.65;;
20468;SDS011;10393;52.460;13.322;2023-05-01T05:27:51;3.60;;;1.40;;
20468;SDS011;10393;52.460;13.322;2023-05-01T05:29:33;3.80;;;1.58;;
20468;SDS011;10393;52.460;13.322;2023-05-01T05:31:15;6.38;;;1.85;;
20468;SDS011;10393;52.460;13.322;2023-05-01T05:32:56;4.05;;;1.67;;
20468;SDS011;10393;52.460;13.322;2023-05-01T05:34:38;3.33;;;1.58;;
20468;SDS011;10393;52.460;13.322;2023-05-01T05:36:20;4.28;;;1.20;;
20468;SDS011;10393;52.460;13.322;2023-05-01T05:38:02;5.13;;;1.80;;
20468;SDS011;10393;52.460;13.322;2023-05-01T05:39:47;3.47;;;1.73;;
20468;SDS011;10393;52.460;13.322;2023-05-01T05:41:28;3.20;;;1.75;;
20468;SDS011;10393;52.460;13.322;2023-05-01T05:43:13;4.57;;;1.48;;
20468;SDS011;10393;52.460;13.322;2023-05-01T05:44:54;3.60;;;1.73;;
20468;SDS011;10393;52.460;13.322;2023-05-01T05:46:35;3.03;;;1.77;;
20468;SDS011;10393;52.460;13.322;2023-05-01T05:48:17;5.28;;;1.40;;
20468;SDS011;10393;52.460;13.322;2023-05-01T05:49:59;4.82;;;1.95;;
20468;SDS011;10393;52.460;13.322;2023-05-01T05:51:40;2.33;;;1.35;;
20468;SDS011;10393;52.460;13.322;2023-05-01T05:53:23;6.63;;;2.60;;
20468;SDS011;10393;52.460;13.322;2023-05-01T05:55:04;5.35;;;2.33;;
20468;SDS011;10393;52.460;13.322;2023-05-01T05:56:46;4.32;;;1.90;;
20468;SDS011;10393;52.460;13.322;2023-05-01T05:58:27;5.80;;;1.70;;
20468;SDS011;10393;52.460;13.322;2023-05-01T06:00:09;2.53;;;1.92;;
20468;SDS011;10393;52.460;13.322;2023-05-01T06:01:53;4.38;;;2.00;;
20468;SDS011;10393;52.460;13.322;2023-05-01T06:03:34;5.15;;;1.45;;
20468;SDS011;10393;52.460;13.322;2023-05-01T06:05:16;2.50;;;1.70;;
20468;SDS011;10393;52.460;13.322;2023-05-01T06:06:57;3.17;;;1.90;;
20468;SDS011;10393;52.460;13.322;2023-05-01T06:08:39;5.07;;;1.88;;
20468;SDS011;10393;52.460;13.322;2023-05-01T06:10:24;5.95;;;2.28;;
20468;SDS011;10393;52.460;13.322;2023-05-01T06:12:05;5.47;;;1.85;;
20468;SDS011;10393;52.460;13.322;2023-05-01T06:13:50;5.15;;;2.42;;
20468;SDS011;10393;52.460;13.322;2023-05-01T06:15:32;4.13;;;1.95;;
20468;SDS011;10393;52.460;13.322;2023-05-01T06:17:13;5.03;;;2.15;;
20468;SDS011;10393;52.460;13.322;2023-05-01T06:18:54;3.72;;;1.63;;
20468;SDS011;10393;52.460;13.322;2023-05-01T06:20:36;3.47;;;2.40;;
20468;SDS011;10393;52.460;13.322;2023-05-01T06:22:19;3.95;;;2.42;;
20468;SDS011;10393;52.460;13.322;2023-05-01T06:24:20;5.88;;;2.38;;
20468;SDS011;10393;52.460;13.322;2023-05-01T06:26:04;2.50;;;2.22;;
20468;SDS011;10393;52.460;13.322;2023-05-01T06:27:47;2.70;;;2.00;;
20468;SDS011;10393;52.460;13.322;2023-05-01T06:29:29;5.38;;;2.65;;
20468;SDS011;10393;52.460;13.322;2023-05-01T06:31:10;2.92;;;2.50;;
20468;SDS011;10393;52.460;13.322;2023-05-01T06:32:56;4.07;;;2.20;;
20468;SDS011;10393;52.460;13.322;2023-05-01T06:34:38;4.22;;;2.65;;
20468;SDS011;10393;52.460;13.322;2023-05-01T06:36:19;5.13;;;2.35;;
20468;SDS011;10393;52.460;13.322;2023-05-01T06:38:01;4.65;;;2.80;;
20468;SDS011;10393;52.460;13.322;2023-05-01T06:39:46;6.75;;;2.55;;
20468;SDS011;10393;52.460;13.322;2023-05-01T06:41:27;6.00;;;2.78;;
20468;SDS011;10393;52.460;13.322;2023-05-01T06:43:08;4.40;;;2.53;;
20468;SDS011;10393;52.460;13.322;2023-05-01T06:44:50;2.63;;;2.38;;
20468;SDS011;10393;52.460;13.322;2023-05-01T06:46:31;2.97;;;2.58;;
20468;SDS011;10393;52.460;13.322;2023-05-01T06:48:12;3.53;;;2.45;;
20468;SDS011;10393;52.460;13.322;2023-05-01T06:49:54;5.18;;;3.63;;
20468;SDS011;10393;52.460;13.322;2023-05-01T06:51:35;2.55;;;2.38;;
20468;SDS011;10393;52.460;13.322;2023-05-01T06:53:16;6.05;;;2.88;;
20468;SDS011;10393;52.460;13.322;2023-05-01T06:54:58;5.88;;;2.75;;
20468;SDS011;10393;52.460;13.322;2023-05-01T06:56:39;8.90;;;2.85;;
20468;SDS011;10393;52.460;13.322;2023-05-01T06:58:20;4.70;;;2.28;;
20468;SDS011;10393;52.460;13.322;2023-05-01T07:00:02;3.08;;;2.10;;
20468;SDS011;10393;52.460;13.322;2023-05-01T07:01:43;4.43;;;2.38;;
20468;SDS011;10393;52.460;13.322;2023-05-01T07:03:25;3.65;;;2.40;;
20468;SDS011;10393;52.460;13.322;2023-05-01T07:05:06;2.65;;;2.45;;
20468;SDS011;10393;52.460;13.322;2023-05-01T07:06:48;2.35;;;2.08;;
20468;SDS011;10393;52.460;13.322;2023-05-01T07:08:30;4.13;;;2.35;;
20468;SDS011;10393;52.460;13.322;2023-05-01T07:10:11;3.65;;;2.38;;
20468;SDS011;10393;52.460;13.322;2023-05-01T07:11:52;5.28;;;3.75;;
20468;SDS011;10393;52.460;13.322;2023-05-01T07:13:36;4.68;;;2.55;;
20468;SDS011;10393;52.460;13.322;2023-05-01T07:15:17;3.38;;;2.42;;
20468;SDS011;10393;52.460;13.322;2023-05-01T07:16:59;4.78;;;2.47;;
20468;SDS011;10393;52.460;13.322;2023-05-01T07:18:40;4.00;;;2.33;;
20468;SDS011;10393;52.460;13.322;2023-05-01T07:20:22;6.32;;;2.50;;
20468;SDS011;10393;52.460;13.322;2023-05-01T07:22:04;3.80;;;2.75;;
20468;SDS011;10393;52.460;13.322;2023-05-01T07:23:45;3.65;;;2.13;;
20468;SDS011;10393;52.460;13.322;2023-05-01T07:25:26;6.03;;;2.92;;
20468;SDS011;10393;52.460;13.322;2023-05-01T07:27:07;3.67;;;2.40;;
20468;SDS011;10393;52.460;13.322;2023-05-01T07:28:49;4.38;;;2.50;;
20468;SDS011;10393;52.460;13.322;2023-05-01T07:30:30;3.85;;;2.60;;
20468;SDS011;10393;52.460;13.322;2023-05-01T07:32:12;6.78;;;2.33;;
20468;SDS011;10393;52.460;13.322;2023-05-01T07:33:53;5.20;;;2.67;;
20468;SDS011;10393;52.460;13.322;2023-05-01T07:35:34;4.70;;;2.85;;
20468;SDS011;10393;52.460;13.322;2023-05-01T07:37:16;4.57;;;2.40;;
20468;SDS011;10393;52.460;13.322;2023-05-01T07:38:58;4.15;;;2.03;;
20468;SDS011;10393;52.460;13.322;2023-05-01T07:40:40;4.20;;;2.28;;
20468;SDS011;10393;52.460;13.322;2023-05-01T07:42:21;2.78;;;2.30;;
20468;SDS011;10393;52.460;13.322;2023-05-01T07:44:02;5.03;;;2.28;;
20468;SDS011;10393;52.460;13.322;2023-05-01T07:45:53;5.88;;;2.08;;
20468;SDS011;10393;52.460;13.322;2023-05-01T07:47:35;5.80;;;2.08;;
20468;SDS011;10393;52.460;13.322;2023-05-01T07:49:17;3.17;;;2.20;;
20468;SDS011;10393;52.460;13.322;2023-05-01T07:51:00;2.10;;;1.80;;
20468;SDS011;10393;52.460;13.322;2023-05-01T07:52:42;3.05;;;2.30;;
20468;SDS011;10393;52.460;13.322;2023-05-01T07:54:24;2.22;;;2.00;;
20468;SDS011;10393;52.460;13.322;2023-05-01T07:56:08;4.03;;;2.38;;
20468;SDS011;10393;52.460;13.322;2023-05-01T07:57:50;6.28;;;2.15;;
20468;SDS011;10393;52.460;13.322;2023-05-01T07:59:31;3.35;;;1.98;;
20468;SDS011;10393;52.460;13.322;2023-05-01T08:01:12;4.40;;;2.60;;
20468;SDS011;10393;52.460;13.322;2023-05-01T08:02:54;3.03;;;2.30;;
20468;SDS011;10393;52.460;13.322;2023-05-01T08:04:35;4.32;;;2.33;;
20468;SDS011;10393;52.460;13.322;2023-05-01T08:06:16;4.72;;;2.25;;
20468;SDS011;10393;52.460;13.322;2023-05-01T08:07:57;3.58;;;1.80;;
20468;SDS011;10393;52.460;13.322;2023-05-01T08:09:39;2.85;;;1.92;;
20468;SDS011;10393;52.460;13.322;2023-05-01T08:11:20;4.68;;;2.60;;
20468;SDS011;10393;52.460;13.322;2023-05-01T08:13:01;2.33;;;1.90;;
20468;SDS011;10393;52.460;13.322;2023-05-01T08:14:43;4.38;;;2.55;;
20468;SDS011;10393;52.460;13.322;2023-05-01T08:16:24;3.95;;;1.70;;
20468;SDS011;10393;52.460;13.322;2023-05-01T08:18:05;4.57;;;2.08;;
20468;SDS011;10393;52.460;13.322;2023-05-01T08:19:47;3.53;;;2.20;;
20468;SDS011;10393;52.460;13.322;2023-05-01T08:21:29;3.10;;;1.83;;
20468;SDS011;10393;52.460;13.322;2023-05-01T08:23:10;3.75;;;2.00;;
20468;SDS011;10393;52.460;13.322;2023-05-01T08:24:51;3.45;;;1.83;;
20468;SDS011;10393;52.460;13.322;2023-05-01T08:26:35;3.63;;;1.83;;
20468;SDS011;10393;52.460;13.322;2023-05-01T08:28:17;2.55;;;1.08;;
20468;SDS011;10393;52.460;13.322;2023-05-01T08:30:01;3.97;;;2.08;;
20468;SDS011;10393;52.460;13.322;2023-05-01T08:31:43;8.23;;;1.88;;
20468;SDS011;10393;52.460;13.322;2023-05-01T08:33:25;3.83;;;1.73;;
20468;SDS011;10393;52.460;13.322;2023-05-01T08:35:06;4.05;;;1.83;;
20468;SDS011;10393;52.460;13.322;2023-05-01T08:36:47;2.78;;;1.73;;
20468;SDS011;10393;52.460;13.322;2023-05-01T08:38:28;3.10;;;1.50;;
20468;SDS011;10393;52.460;13.322;2023-05-01T08:40:10;2.65;;;1.50;;
20468;SDS011;10393;52.460;13.322;2023-05-01T08:41:51;7.88;;;1.40;;
20468;SDS011;10393;52.460;13.322;2023-05-01T08:43:33;3.20;;;1.30;;
20468;SDS011;10393;52.460;13.322;2023-05-01T08:45:14;6.90;;;1.48;;
20468;SDS011;10393;52.460;13.322;2023-05-01T08:48:43;8.27;;;1.65;;
20468;SDS011;10393;52.460;13.322;2023-05-01T08:50:24;3.55;;;1.23;;
20468;SDS011;10393;52.460;13.322;2023-05-01T08:52:09;3.33;;;1.10;;
20468;SDS011;10393;52.460;13.322;2023-05-01T08:53:51;1.73;;;1.40;;
20468;SDS011;10393;52.460;13.322;2023-05-01T08:55:34;1.75;;;0.90;;
20468;SDS011;10393;52.460;13.322;2023-05-01T08:57:16;4.18;;;1.02;;
20468;SDS011;10393;52.460;13.322;2023-05-01T08:58:58;3.35;;;1.02;;
20468;SDS011;10393;52.460;13.322;2023-05-01T09:00:41;3.40;;;1.50;;
20468;SDS011;10393;52.460;13.322;2023-05-01T09:02:22;7.65;;;1.23;;
20468;SDS011;10393;52.460;13.322;2023-05-01T09:04:05;2.53;;;1.13;;
20468;SDS011;10393;52.460;13.322;2023-05-01T09:05:46;2.65;;;1.55;;
20468;SDS011;10393;52.460;13.322;2023-05-01T09:07:28;2.90;;;1.10;;
20468;SDS011;10393;52.460;13.322;2023-05-01T09:09:09;2.25;;;1.17;;
20468;SDS011;10393;52.460;13.322;2023-05-01T09:10:51;5.25;;;1.30;;
20468;SDS011;10393;52.460;13.322;2023-05-01T09:12:34;5.47;;;1.50;;
20468;SDS011;10393;52.460;13.322;2023-05-01T09:14:18;5.05;;;1.20;;
20468;SDS011;10393;52.460;13.322;2023-05-01T09:16:00;6.88;;;1.80;;
20468;SDS011;10393;52.460;13.322;2023-05-01T09:17:41;5.13;;;1.10;;
20468;SDS011;10393;52.460;13.322;2023-05-01T09:19:23;5.15;;;1.30;;
20468;SDS011;10393;52.460;13.322;2023-05-01T09:21:05;4.70;;;1.05;;
20468;SDS011;10393;52.460;13.322;2023-05-01T09:22:46;1.30;;;1.00;;
20468;SDS011;10393;52.460;13.322;2023-05-01T09:24:28;3.63;;;1.00;;
20468;SDS011;10393;52.460;13.322;2023-05-01T09:26:09;3.10;;;1.08;;
20468;SDS011;10393;52.460;13.322;2023-05-01T09:27:51;1.38;;;1.00;;
20468;SDS011;10393;52.460;13.322;2023-05-01T09:29:36;2.72;;;0.90;;
20468;SDS011;10393;52.460;13.322;2023-05-01T09:31:27;2.00;;;1.10;;
20468;SDS011;10393;52.460;13.322;2023-05-01T09:33:18;9.85;;;1.30;;
20468;SDS011;10393;52.460;13.322;2023-05-01T09:35:11;2.33;;;1.00;;
20468;SDS011;10393;52.460;13.322;2023-05-01T09:36:56;2.70;;;1.27;;
20468;SDS011;10393;52.460;13.322;2023-05-01T09:38:37;6.03;;;1.40;;
20468;SDS011;10393;52.460;13.322;2023-05-01T09:40:25;7.47;;;1.48;;
20468;SDS011;10393;52.460;13.322;2023-05-01T09:42:07;3.35;;;1.50;;
20468;SDS011;10393;52.460;13.322;2023-05-01T09:43:49;1.17;;;0.95;;
20468;SDS011;10393;52.460;13.322;2023-05-01T09:45:31;3.75;;;1.02;;
20468;SDS011;10393;52.460;13.322;2023-05-01T09:47:13;2.28;;;1.00;;
20468;SDS011;10393;52.460;13.322;2023-05-01T09:49:01;3.25;;;1.23;;
20468;SDS011;10393;52.460;13.322;2023-05-01T09:50:43;2.13;;;1.42;;
20468;SDS011;10393;52.460;13.322;2023-05-01T09:52:28;2.25;;;1.20;;
20468;SDS011;10393;52.460;13.322;2023-05-01T09:54:18;3.17;;;1.42;;
20468;SDS011;10393;52.460;13.322;2023-05-01T09:56:00;3.63;;;1.33;;
20468;SDS011;10393;52.460;13.322;2023-05-01T09:57:42;3.83;;;1.63;;
20468;SDS011;10393;52.460;13.322;2023-05-01T09:59:24;1.92;;;1.10;;
20468;SDS011;10393;52.460;13.322;2023-05-01T10:01:10;8.10;;;1.80;;
20468;SDS011;10393;52.460;13.322;2023-05-01T10:02:51;6.72;;;1.77;;
20468;SDS011;10393;52.460;13.322;2023-05-01T10:04:33;1.13;;;1.00;;
20468;SDS011;10393;52.460;13.322;2023-05-01T10:06:26;2.25;;;1.10;;
20468;SDS011;10393;52.460;13.322;2023-05-01T10:08:08;2.67;;;0.90;;
20468;SDS011;10393;52.460;13.322;2023-05-01T10:09:54;4.65;;;0.80;;
20468;SDS011;10393;52.460;13.322;2023-05-01T10:11:52;2.55;;;1.00;;
20468;SDS011;10393;52.460;13.322;2023-05-01T10:13:35;2.65;;;1.40;;
20468;SDS011;10393;52.460;13.322;2023-05-01T10:15:16;1.10;;;0.90;;
20468;SDS011;10393;52.460;13.322;2023-05-01T10:16:57;3.10;;;1.55;;
20468;SDS011;10393;52.460;13.322;2023-05-01T10:18:38;2.72;;;1.60;;
20468;SDS011;10393;52.460;13.322;2023-05-01T10:20:20;3.55;;;1.40;;
20468;SDS011;10393;52.460;13.322;2023-05-01T10:22:02;3.38;;;1.33;;
20468;SDS011;10393;52.460;13.322;2023-05-01T10:23:43;3.33;;;1.60;;
20468;SDS011;10393;52.460;13.322;2023-05-01T10:25:24;2.47;;;1.63;;
20468;SDS011;10393;52.460;13.322;2023-05-01T10:27:07;1.23;;;1.13;;
20468;SDS011;10393;52.460;13.322;2023-05-01T10:28:49;5.82;;;1.50;;
20468;SDS011;10393;52.460;13.322;2023-05-01T10:30:30;2.72;;;1.25;;
20468;SDS011;10393;52.460;13.322;2023-05-01T10:32:12;4.57;;;1.35;;